Huvudsida
METAR-TAF:

METAR-TAF

Flygplatser :

Kuwaits internationella flygplats

Kuwait, Kuwait

latitud: 29-13N, longitud: 047-59E, höjd: 55 m

Aktuellt väderrapport

Denna rapport gjordes för 56 minuter sedan, klockan 09:00 UTC
Vind 12 kt från nord/nordväst
Temperatur 43°C
Fuktighet 12%
Tryck 1000 hPa
Sikt 10 km eller mer
Inga moln under 1 500 m eller inga cumulonimbus

METAR: OKBK 190900Z 34012KT CAVOK 43/08 Q1000 NOSIG

Tid: 12:56 (09:56 UTC)

Väderprognos

Denna rapport gjordes för 5 timmar och 11 minuter sedan, klockan 04:45 UTC
Prognos gäller från 19 kl. 06 UTC till 20 kl. 12 UTC
Vind 8 kt från nord i byarna ända upp till 18 kt
Sikt: 7000 m
Klar himmel

TAF: OKBK 190445Z 1906/2012 35008G18KT 7000 SKC

Aktuella väderrapporter och prognoser från 4000 flygplatser (METAR- och TAF-rapporter).

De tillgängliga stationerna syns som gula och röda prickar på kartan.

För musen över prickarna för att se namnen på stationerna.

Klicka sedan för att få väderrapporter och prognoser.

För att ändra kartan: Klicka på de gröna knapparna med ett svart kors på för att zooma in; den gröna knappen med ett streck på för att zooma ut; eller på de gröna pilarna för angränsande kartor.


METAR-TAF: